createdAt,value
2023-02-19T00:01:43.793Z,86.45
2023-02-19T00:04:18.968Z,86.01
2023-02-19T00:06:46.953Z,86.32
2023-02-19T00:09:16.008Z,86.98
2023-02-19T00:11:43.005Z,86.79
2023-02-19T00:14:14.708Z,86.64
2023-02-19T00:16:41.502Z,86.51
2023-02-19T00:19:17.975Z,86.76
2023-02-19T00:21:44.809Z,86.54
2023-02-19T00:24:12.806Z,87.34
2023-02-19T00:26:40.874Z,86.70
2023-02-19T00:29:12.283Z,86.69
2023-02-19T00:31:40.445Z,86.81
2023-02-19T00:34:07.907Z,87.11
2023-02-19T00:36:37.023Z,87.72
2023-02-19T00:39:04.990Z,88.59
2023-02-19T00:41:32.260Z,87.90
2023-02-19T00:44:04.528Z,87.33
2023-02-19T00:46:38.219Z,87.92
2023-02-19T00:49:07.028Z,88.21
2023-02-19T00:51:38.416Z,88.07
2023-02-19T00:54:06.461Z,88.00
2023-02-19T00:56:33.400Z,88.06
2023-02-19T00:59:00.411Z,88.38
2023-02-19T01:01:27.061Z,88.60
2023-02-19T01:03:54.286Z,88.33
2023-02-19T01:06:21.734Z,88.87
2023-02-19T01:08:49.210Z,89.03
2023-02-19T01:11:17.026Z,89.05
2023-02-19T01:13:44.413Z,89.02
2023-02-19T01:16:22.426Z,89.27
2023-02-19T01:18:49.196Z,89.20
2023-02-19T01:21:21.634Z,89.34
2023-02-19T01:23:50.559Z,89.18
2023-02-19T01:26:21.351Z,89.68
2023-02-19T01:28:48.585Z,90.46
2023-02-19T01:31:20.524Z,89.03
2023-02-19T01:33:49.324Z,89.50
2023-02-19T01:36:16.482Z,89.60
2023-02-19T01:38:43.953Z,89.26
2023-02-19T01:41:13.650Z,89.58
2023-02-19T01:44:08.184Z,90.01
2023-02-19T01:46:36.920Z,89.30
2023-02-19T01:49:10.066Z,90.28
2023-02-19T01:51:39.678Z,90.46
2023-02-19T01:54:09.735Z,90.20
2023-02-19T01:56:40.797Z,89.29
2023-02-19T01:59:07.639Z,90.05
2023-02-19T02:01:34.709Z,89.97
2023-02-19T02:04:01.767Z,89.98
2023-02-19T02:06:33.125Z,89.42
2023-02-19T02:09:20.369Z,89.40
2023-02-19T02:11:52.166Z,89.76
2023-02-19T02:14:24.259Z,89.40
2023-02-19T02:17:38.934Z,90.06
2023-02-19T02:20:24.397Z,89.74
2023-02-19T02:22:59.747Z,90.04
2023-02-19T02:25:54.156Z,90.48
2023-02-19T02:28:52.228Z,90.40
2023-02-19T02:31:33.053Z,89.72
2023-02-19T02:34:14.501Z,89.63
2023-02-19T02:36:45.010Z,90.06
2023-02-19T02:39:15.709Z,90.14
2023-02-19T02:41:45.071Z,90.02
2023-02-19T02:44:12.587Z,89.73
2023-02-19T02:46:44.987Z,90.36
2023-02-19T02:49:23.645Z,90.16
2023-02-19T02:51:54.587Z,90.12
2023-02-19T02:54:51.100Z,90.20
2023-02-19T02:57:19.465Z,91.01
2023-02-19T02:59:49.111Z,90.35
2023-02-19T03:02:23.780Z,90.22
2023-02-19T03:05:31.159Z,90.36
2023-02-19T03:08:20.879Z,91.05
2023-02-19T03:10:52.581Z,90.71
2023-02-19T03:13:49.216Z,90.82
2023-02-19T03:16:41.682Z,90.26
2023-02-19T03:19:19.816Z,90.63
2023-02-19T03:21:52.781Z,91.17
2023-02-19T03:24:42.683Z,90.85
2023-02-19T03:27:11.734Z,90.49
2023-02-19T03:29:41.735Z,90.81
2023-02-19T03:32:20.796Z,91.27
2023-02-19T03:34:55.537Z,91.58
2023-02-19T03:37:30.080Z,90.48
2023-02-19T03:39:57.573Z,91.76
2023-02-19T03:42:47.581Z,91.19
2023-02-19T03:45:25.773Z,91.04
2023-02-19T03:48:03.212Z,90.60
2023-02-19T03:50:46.128Z,91.54
2023-02-19T03:53:24.863Z,92.01
2023-02-19T03:56:06.857Z,91.60
2023-02-19T03:59:02.309Z,91.69
2023-02-19T04:01:36.947Z,91.72
2023-02-19T04:04:16.878Z,91.46
2023-02-19T04:06:46.832Z,91.61
2023-02-19T04:09:14.979Z,91.67
2023-02-19T04:11:42.049Z,92.10
2023-02-19T04:14:15.175Z,92.05
2023-02-19T04:16:47.816Z,91.17
2023-02-19T04:19:20.831Z,91.32
2023-02-19T04:21:50.163Z,91.63
2023-02-19T04:24:26.636Z,92.40
2023-02-19T04:26:54.666Z,91.90
2023-02-19T04:29:21.479Z,91.66
2023-02-19T04:31:48.524Z,91.93
2023-02-19T04:34:15.239Z,91.56
2023-02-19T04:36:41.843Z,92.16
2023-02-19T04:39:08.725Z,92.12
2023-02-19T04:41:35.579Z,91.34
2023-02-19T04:44:02.320Z,91.58
2023-02-19T04:46:28.954Z,91.73
2023-02-19T04:48:56.039Z,92.49
2023-02-19T04:51:22.640Z,91.60
2023-02-19T04:53:49.650Z,91.50
2023-02-19T04:56:17.467Z,91.91
2023-02-19T04:58:45.203Z,91.89
2023-02-19T05:01:12.971Z,91.93
2023-02-19T05:03:40.345Z,92.24
2023-02-19T05:06:11.913Z,91.91
2023-02-19T05:08:39.247Z,91.75
2023-02-19T05:11:07.723Z,91.77
2023-02-19T05:13:34.796Z,91.64
2023-02-19T05:16:05.642Z,92.01
2023-02-19T05:18:32.951Z,91.69
2023-02-19T05:21:00.778Z,91.42
2023-02-19T05:23:28.224Z,91.76
2023-02-19T05:25:54.982Z,92.01
2023-02-19T05:28:28.545Z,92.07
2023-02-19T05:30:57.057Z,91.94
2023-02-19T05:33:25.919Z,92.40
2023-02-19T05:35:55.419Z,91.63
2023-02-19T05:38:23.132Z,91.52
2023-02-19T05:40:49.953Z,92.24
2023-02-19T05:43:17.190Z,92.28
2023-02-19T05:45:44.008Z,91.99
2023-02-19T05:48:12.716Z,91.91
2023-02-19T05:50:40.004Z,91.62
2023-02-19T05:53:06.666Z,92.15
2023-02-19T05:55:36.369Z,92.11
2023-02-19T05:58:03.770Z,92.13
2023-02-19T06:00:32.152Z,92.55
2023-02-19T06:02:58.935Z,91.99
2023-02-19T06:05:25.743Z,92.36
2023-02-19T06:07:52.340Z,91.91
2023-02-19T06:10:19.100Z,91.85
2023-02-19T06:12:45.712Z,92.08
2023-02-19T06:15:12.243Z,92.37
2023-02-19T06:17:39.052Z,91.98
2023-02-19T06:20:06.026Z,91.59
2023-02-19T06:22:32.784Z,92.29
2023-02-19T06:24:59.269Z,91.87
2023-02-19T06:27:25.851Z,92.16
2023-02-19T06:29:52.362Z,91.80
2023-02-19T06:32:19.159Z,91.81
2023-02-19T06:34:45.792Z,92.12
2023-02-19T06:37:12.367Z,91.77
2023-02-19T06:39:38.915Z,92.53
2023-02-19T06:42:05.794Z,91.57
2023-02-19T06:44:32.370Z,92.44
2023-02-19T06:46:59.146Z,92.00
2023-02-19T06:49:26.538Z,91.58
2023-02-19T06:51:53.061Z,91.70
2023-02-19T06:54:19.740Z,91.92
2023-02-19T06:56:47.198Z,92.59
2023-02-19T06:59:18.562Z,91.98
2023-02-19T07:01:45.781Z,92.36
2023-02-19T07:04:12.424Z,92.54
2023-02-19T07:06:39.192Z,92.76
2023-02-19T07:09:07.082Z,92.98
2023-02-19T07:11:35.367Z,92.99
2023-02-19T07:14:04.307Z,92.02
2023-02-19T07:16:31.417Z,92.79
2023-02-19T07:18:59.712Z,92.32
2023-02-19T07:21:27.484Z,92.98
2023-02-19T07:23:54.324Z,92.57
2023-02-19T07:26:21.836Z,92.96
2023-02-19T07:28:50.471Z,92.50
2023-02-19T07:31:19.310Z,92.91
2023-02-19T07:33:47.410Z,92.41
2023-02-19T07:36:15.507Z,92.60
2023-02-19T07:38:42.016Z,93.28
2023-02-19T07:41:09.098Z,92.78
2023-02-19T07:43:38.042Z,93.20
2023-02-19T07:46:08.188Z,93.73
2023-02-19T07:48:39.084Z,93.82
2023-02-19T07:51:08.794Z,93.67
2023-02-19T07:53:35.661Z,94.36
2023-02-19T07:56:04.861Z,93.85
2023-02-19T07:58:32.279Z,94.89
2023-02-19T08:01:07.227Z,94.30
2023-02-19T08:03:33.897Z,94.53
2023-02-19T08:06:00.534Z,94.68
2023-02-19T08:08:27.034Z,94.22
2023-02-19T08:11:12.431Z,94.63
2023-02-19T08:13:39.157Z,94.84
2023-02-19T08:16:20.123Z,94.46
2023-02-19T08:18:51.073Z,94.31
2023-02-19T08:21:21.136Z,94.43
2023-02-19T08:23:49.973Z,94.98
2023-02-19T08:26:17.611Z,93.84
2023-02-19T08:28:44.305Z,93.96
2023-02-19T08:31:12.808Z,93.52
2023-02-19T08:33:39.651Z,93.76
2023-02-19T08:36:08.525Z,93.07
2023-02-19T08:38:36.668Z,93.64
2023-02-19T08:41:09.212Z,93.02
2023-02-19T08:43:36.601Z,92.74
2023-02-19T08:46:04.141Z,93.08
2023-02-19T08:48:30.794Z,93.83
2023-02-19T08:51:01.199Z,93.48
2023-02-19T08:53:27.972Z,93.65
2023-02-19T08:55:54.961Z,93.04
2023-02-19T08:58:22.055Z,93.29
2023-02-19T09:00:49.042Z,93.63
2023-02-19T09:03:15.660Z,93.00
2023-02-19T09:05:42.418Z,92.73
2023-02-19T09:08:09.623Z,92.33
2023-02-19T09:10:36.339Z,93.27
2023-02-19T09:13:03.146Z,92.86
2023-02-19T09:15:31.992Z,93.15
2023-02-19T09:17:58.597Z,92.01
2023-02-19T09:20:25.362Z,91.90
2023-02-19T09:22:57.550Z,92.17
2023-02-19T09:25:24.385Z,92.33
2023-02-19T09:27:54.719Z,91.97
2023-02-19T09:30:21.383Z,91.92
2023-02-19T09:32:47.940Z,91.62
2023-02-19T09:35:14.525Z,91.63
2023-02-19T09:37:41.041Z,91.38
2023-02-19T09:40:08.127Z,90.58
2023-02-19T09:42:34.860Z,89.35
2023-02-19T09:45:01.915Z,90.24
2023-02-19T09:47:31.499Z,90.19
2023-02-19T09:50:05.490Z,90.84
2023-02-19T09:52:52.901Z,90.38
2023-02-19T09:55:28.235Z,89.92
2023-02-19T09:57:56.758Z,89.85
2023-02-19T10:00:31.317Z,89.71
2023-02-19T10:03:05.428Z,89.28
2023-02-19T10:05:34.140Z,89.51
2023-02-19T10:08:04.495Z,89.40
2023-02-19T10:10:34.225Z,89.09
2023-02-19T10:13:17.987Z,88.81
2023-02-19T10:15:48.711Z,88.89
2023-02-19T10:18:21.781Z,89.33
2023-02-19T10:20:50.793Z,88.15
2023-02-19T10:23:18.182Z,88.72
2023-02-19T10:25:57.257Z,87.90
2023-02-19T10:28:28.168Z,89.33
2023-02-19T10:30:57.766Z,88.35
2023-02-19T10:33:25.540Z,88.97
2023-02-19T10:36:00.357Z,89.34
2023-02-19T10:38:34.682Z,88.80
2023-02-19T10:41:07.267Z,89.03
2023-02-19T10:43:40.805Z,89.34
2023-02-19T10:46:16.854Z,89.66
2023-02-19T10:48:51.884Z,87.12
2023-02-19T10:51:21.928Z,88.35
2023-02-19T10:53:50.826Z,89.84
2023-02-19T10:56:25.591Z,88.29
2023-02-19T10:58:52.873Z,88.44
2023-02-19T11:01:29.271Z,87.96
2023-02-19T11:04:16.287Z,87.77
2023-02-19T11:06:43.643Z,88.74
2023-02-19T11:09:36.778Z,88.30
2023-02-19T11:12:06.136Z,88.54
2023-02-19T11:14:34.670Z,88.90
2023-02-19T11:17:06.623Z,86.81
2023-02-19T11:19:38.645Z,85.38
2023-02-19T11:22:33.276Z,86.03
2023-02-19T11:25:06.304Z,87.60
2023-02-19T11:27:33.965Z,86.74
2023-02-19T11:30:35.250Z,85.58
2023-02-19T11:33:27.276Z,86.16
2023-02-19T11:36:15.737Z,87.54
2023-02-19T11:38:42.920Z,87.72
2023-02-19T11:41:28.729Z,86.18
2023-02-19T11:44:30.294Z,85.38
2023-02-19T11:47:10.867Z,87.40
2023-02-19T11:50:08.868Z,87.32
2023-02-19T11:53:08.990Z,86.82
2023-02-19T11:55:50.116Z,86.72
2023-02-19T11:58:46.993Z,85.48
2023-02-19T12:01:30.346Z,85.09
2023-02-19T12:04:08.026Z,86.38
2023-02-19T12:07:06.148Z,85.56
2023-02-19T12:09:58.630Z,85.77
2023-02-19T12:12:49.216Z,86.55
2023-02-19T12:15:41.196Z,86.35
2023-02-19T12:18:27.921Z,84.90
2023-02-19T12:21:20.521Z,86.16
2023-02-19T12:24:25.455Z,84.96
2023-02-19T12:27:20.550Z,86.16
2023-02-19T12:30:24.630Z,83.61
2023-02-19T12:33:22.351Z,84.92
2023-02-19T12:36:27.606Z,84.53
2023-02-19T12:39:28.853Z,84.35
2023-02-19T12:42:02.581Z,84.49
2023-02-19T12:44:44.052Z,84.26
2023-02-19T12:47:21.618Z,83.99
2023-02-19T12:50:05.714Z,84.69
2023-02-19T12:52:40.535Z,84.64
2023-02-19T12:55:29.539Z,84.37
2023-02-19T12:57:59.237Z,84.75
2023-02-19T13:00:34.583Z,84.71
2023-02-19T13:03:21.093Z,84.72
2023-02-19T13:06:12.042Z,85.33
2023-02-19T13:09:06.383Z,84.59
2023-02-19T13:11:42.903Z,83.98
2023-02-19T13:14:30.930Z,85.24
2023-02-19T13:17:09.427Z,85.30
2023-02-19T13:19:37.780Z,85.66
2023-02-19T13:22:59.121Z,84.17
2023-02-19T13:25:44.213Z,84.59
2023-02-19T13:28:28.077Z,83.91
2023-02-19T13:31:10.812Z,84.02
2023-02-19T13:33:48.517Z,83.77
2023-02-19T13:36:23.316Z,83.16
2023-02-19T13:38:50.548Z,83.66
2023-02-19T13:41:20.815Z,83.21
2023-02-19T13:43:56.046Z,82.90
2023-02-19T13:46:23.040Z,81.97
2023-02-19T13:49:31.592Z,81.86
2023-02-19T13:52:00.486Z,83.12
2023-02-19T13:54:40.111Z,81.78
2023-02-19T13:57:28.554Z,82.87
2023-02-19T13:59:58.246Z,82.13
2023-02-19T14:02:32.182Z,81.54
2023-02-19T14:05:07.908Z,81.85
2023-02-19T14:07:38.063Z,80.75
2023-02-19T14:10:12.276Z,82.07
2023-02-19T14:12:38.809Z,81.27
2023-02-19T14:15:44.118Z,79.04
2023-02-19T14:18:47.551Z,79.20
2023-02-19T14:21:26.034Z,81.13
2023-02-19T14:23:55.979Z,80.65
2023-02-19T14:26:23.933Z,80.97
2023-02-19T14:28:53.060Z,81.10
2023-02-19T14:31:36.472Z,79.08
2023-02-19T14:34:18.721Z,79.77
2023-02-19T14:36:49.104Z,80.27
2023-02-19T14:39:19.809Z,77.23
2023-02-19T14:41:51.473Z,77.14
2023-02-19T14:44:25.808Z,78.30
2023-02-19T14:47:05.241Z,76.42
2023-02-19T14:49:45.891Z,77.23
2023-02-19T14:52:25.056Z,78.57
2023-02-19T14:54:56.928Z,77.49
2023-02-19T14:57:28.701Z,77.20
2023-02-19T15:00:00.736Z,76.88
2023-02-19T15:02:29.515Z,77.25
2023-02-19T15:04:56.756Z,77.00
2023-02-19T15:07:30.235Z,76.94
2023-02-19T15:10:04.898Z,75.94
2023-02-19T15:12:51.912Z,74.04
2023-02-19T15:15:29.797Z,75.70
2023-02-19T15:17:57.769Z,76.46
2023-02-19T15:20:26.716Z,76.68
2023-02-19T15:22:54.645Z,76.78
2023-02-19T15:25:24.709Z,75.51
2023-02-19T15:27:51.484Z,75.95
2023-02-19T15:30:24.536Z,76.87
2023-02-19T15:32:55.792Z,76.92
2023-02-19T15:35:24.090Z,77.43
2023-02-19T15:37:52.152Z,77.56
2023-02-19T15:40:20.589Z,77.51
2023-02-19T15:42:47.967Z,78.14
2023-02-19T15:45:16.936Z,78.41
2023-02-19T15:47:49.235Z,78.41
2023-02-19T15:50:19.481Z,77.17
2023-02-19T15:52:55.235Z,77.81
2023-02-19T15:55:34.182Z,77.96
2023-02-19T15:58:19.418Z,78.63
2023-02-19T16:00:52.118Z,79.02
2023-02-19T16:03:23.047Z,78.39
2023-02-19T16:06:16.328Z,78.39
2023-02-19T16:08:45.921Z,78.32
2023-02-19T16:11:24.533Z,78.26
2023-02-19T16:13:52.019Z,78.68
2023-02-19T16:16:24.448Z,78.95
2023-02-19T16:18:53.216Z,78.92
2023-02-19T16:21:27.052Z,78.27
2023-02-19T16:24:03.061Z,78.82
2023-02-19T16:26:32.119Z,78.98
2023-02-19T16:28:58.710Z,79.30
2023-02-19T16:31:25.613Z,78.87
2023-02-19T16:33:52.522Z,79.54
2023-02-19T16:36:19.216Z,78.92
2023-02-19T16:39:14.324Z,78.85
2023-02-19T16:41:46.669Z,79.58
2023-02-19T16:44:31.375Z,78.99
2023-02-19T16:47:04.847Z,79.94
2023-02-19T16:49:32.022Z,79.29
2023-02-19T16:52:04.503Z,80.10
2023-02-19T16:54:31.588Z,79.57
2023-02-19T16:56:58.161Z,79.10
2023-02-19T16:59:24.967Z,79.57
2023-02-19T17:01:51.634Z,78.89
2023-02-19T17:04:18.438Z,79.80
2023-02-19T17:06:45.656Z,80.12
2023-02-19T17:09:12.230Z,79.58
2023-02-19T17:11:38.954Z,80.08
2023-02-19T17:14:05.544Z,79.84
2023-02-19T17:16:40.254Z,79.09
2023-02-19T17:19:14.123Z,79.13
2023-02-19T17:21:40.937Z,79.95
2023-02-19T17:24:08.009Z,79.80
2023-02-19T17:26:34.703Z,79.88
2023-02-19T17:29:04.320Z,79.67
2023-02-19T17:31:31.126Z,79.44
2023-02-19T17:33:59.242Z,79.66
2023-02-19T17:36:30.495Z,80.17
2023-02-19T17:38:58.946Z,79.54
2023-02-19T17:41:26.009Z,78.38
2023-02-19T17:43:52.788Z,79.70
2023-02-19T17:46:22.918Z,79.77
2023-02-19T17:48:50.373Z,79.79
2023-02-19T17:51:17.007Z,79.69
2023-02-19T17:53:44.061Z,79.71
2023-02-19T17:56:16.863Z,79.47
2023-02-19T17:58:43.589Z,79.03
2023-02-19T18:01:10.725Z,78.80
2023-02-19T18:03:37.546Z,79.28
2023-02-19T18:06:05.110Z,79.21
2023-02-19T18:08:31.806Z,78.68
2023-02-19T18:10:58.538Z,79.16
2023-02-19T18:13:25.278Z,79.01
2023-02-19T18:15:53.570Z,78.64
2023-02-19T18:18:21.100Z,78.51
2023-02-19T18:20:48.004Z,78.31
2023-02-19T18:23:14.979Z,78.73
2023-02-19T18:25:41.782Z,79.00
2023-02-19T18:28:08.559Z,79.02
2023-02-19T18:30:35.304Z,78.68
2023-02-19T18:33:02.169Z,79.04
2023-02-19T18:35:28.968Z,78.31
2023-02-19T18:37:55.996Z,78.53
2023-02-19T18:40:25.943Z,78.83
2023-02-19T18:42:52.864Z,77.70
2023-02-19T18:45:19.672Z,78.19
2023-02-19T18:47:50.079Z,78.42
2023-02-19T18:50:18.950Z,78.42
2023-02-19T18:52:45.818Z,78.86
2023-02-19T18:55:12.508Z,78.23
2023-02-19T18:57:39.088Z,78.56
2023-02-19T19:00:07.395Z,78.11
2023-02-19T19:02:48.357Z,78.18
2023-02-19T19:05:23.309Z,78.42
2023-02-19T19:07:54.478Z,78.20
2023-02-19T19:10:22.070Z,78.49
2023-02-19T19:12:49.051Z,78.48
2023-02-19T19:15:18.449Z,78.77
2023-02-19T19:17:45.552Z,78.96
2023-02-19T19:20:12.692Z,78.61
2023-02-19T19:22:39.535Z,78.94
2023-02-19T19:25:06.581Z,79.16
2023-02-19T19:27:33.187Z,79.32
2023-02-19T19:29:59.757Z,79.18
2023-02-19T19:32:26.278Z,79.44
2023-02-19T19:34:52.920Z,78.93
2023-02-19T19:37:19.731Z,79.58
2023-02-19T19:39:46.216Z,79.81
2023-02-19T19:42:12.796Z,79.74
2023-02-19T19:44:39.418Z,79.24
2023-02-19T19:47:05.965Z,79.56
2023-02-19T19:49:33.577Z,79.59
2023-02-19T19:52:01.215Z,79.30
2023-02-19T19:54:28.524Z,80.05
2023-02-19T19:56:55.151Z,80.30
2023-02-19T19:59:22.497Z,80.20
2023-02-19T20:01:51.728Z,79.87
2023-02-19T20:04:20.217Z,80.44
2023-02-19T20:06:47.324Z,80.11
2023-02-19T20:09:14.557Z,79.94
2023-02-19T20:11:48.968Z,79.93
2023-02-19T20:14:17.172Z,79.92
2023-02-19T20:16:44.955Z,79.93
2023-02-19T20:19:12.204Z,80.24
2023-02-19T20:21:39.042Z,80.42
2023-02-19T20:24:05.856Z,80.14
2023-02-19T20:26:32.732Z,79.72
2023-02-19T20:28:59.364Z,80.28
2023-02-19T20:31:26.498Z,80.25
2023-02-19T20:33:53.295Z,79.85
2023-02-19T20:36:20.774Z,80.08
2023-02-19T20:38:49.827Z,80.35
2023-02-19T20:41:16.437Z,80.09
2023-02-19T20:43:43.161Z,80.47
2023-02-19T20:46:10.158Z,80.36
2023-02-19T20:48:37.016Z,80.78
2023-02-19T20:51:04.236Z,80.90
2023-02-19T20:53:31.998Z,80.92
2023-02-19T20:55:59.110Z,80.38
2023-02-19T20:58:26.096Z,81.10
2023-02-19T21:00:55.839Z,80.65
2023-02-19T21:03:22.710Z,80.75
2023-02-19T21:05:49.274Z,80.82
2023-02-19T21:08:17.381Z,80.37
2023-02-19T21:10:45.498Z,80.35
2023-02-19T21:13:13.027Z,80.19
2023-02-19T21:15:39.548Z,79.74
2023-02-19T21:18:06.182Z,80.14
2023-02-19T21:20:32.898Z,79.84
2023-02-19T21:22:59.668Z,79.69
2023-02-19T21:25:26.726Z,79.79
2023-02-19T21:27:53.553Z,79.77
2023-02-19T21:30:20.095Z,79.68
2023-02-19T21:32:46.677Z,79.75
2023-02-19T21:35:13.439Z,79.63
2023-02-19T21:37:42.429Z,79.45
2023-02-19T21:40:09.734Z,79.15
2023-02-19T21:42:36.463Z,79.42
2023-02-19T21:45:03.813Z,79.23
2023-02-19T21:47:30.370Z,79.01
2023-02-19T21:49:56.942Z,78.57
2023-02-19T21:52:23.468Z,78.64
2023-02-19T21:54:50.098Z,78.44
2023-02-19T21:57:16.584Z,78.66
2023-02-19T21:59:43.277Z,77.66
2023-02-19T22:02:10.376Z,77.41
2023-02-19T22:04:37.129Z,77.94
2023-02-19T22:07:03.583Z,77.17
2023-02-19T22:09:31.708Z,77.27
2023-02-19T22:11:58.444Z,77.21
2023-02-19T22:14:25.142Z,77.58
2023-02-19T22:16:51.930Z,76.86
2023-02-19T22:19:18.551Z,77.75
2023-02-19T22:21:45.293Z,77.19
2023-02-19T22:24:17.740Z,78.13
2023-02-19T22:26:44.942Z,77.96
2023-02-19T22:29:13.395Z,78.06
2023-02-19T22:31:40.177Z,79.29
2023-02-19T22:34:07.368Z,78.45
2023-02-19T22:36:36.999Z,79.14
2023-02-19T22:39:05.813Z,78.63
2023-02-19T22:41:32.652Z,78.49
2023-02-19T22:44:00.156Z,78.53
2023-02-19T22:46:29.532Z,78.37
2023-02-19T22:48:56.526Z,78.64
2023-02-19T22:51:24.508Z,79.80
2023-02-19T22:53:53.957Z,79.02
2023-02-19T22:56:22.632Z,79.29
2023-02-19T22:58:49.462Z,79.54
2023-02-19T23:01:16.773Z,79.99
2023-02-19T23:03:55.454Z,80.29
2023-02-19T23:06:25.245Z,80.64
2023-02-19T23:08:53.299Z,80.77
2023-02-19T23:11:23.118Z,81.51
2023-02-19T23:13:49.777Z,81.11
2023-02-19T23:16:16.682Z,80.75
2023-02-19T23:18:43.435Z,80.99
2023-02-19T23:21:10.656Z,81.40
2023-02-19T23:23:37.628Z,80.98
2023-02-19T23:26:04.722Z,81.51
2023-02-19T23:28:31.636Z,81.43
2023-02-19T23:30:58.270Z,81.52
2023-02-19T23:33:24.898Z,81.83
2023-02-19T23:35:51.443Z,81.60
2023-02-19T23:38:18.054Z,81.92
2023-02-19T23:40:45.403Z,81.41
2023-02-19T23:43:12.007Z,81.58
2023-02-19T23:45:38.701Z,81.77
2023-02-19T23:48:05.508Z,82.36
2023-02-19T23:50:32.147Z,82.21
2023-02-19T23:52:59.438Z,82.36
2023-02-19T23:55:26.522Z,82.66
2023-02-19T23:57:53.564Z,82.56
